Time;durP1;ratioP1;P1;durP2;ratioP2;P2;SDS_P1;SDS_P2;PMS_P1;PMS_P2;Temp;Humidity;BMP_temperature;BMP_pressure;BME280_temperature;BME280_humidity;BME280_pressure;Samples;Min_cycle;Max_cycle;Signal;HPM_P1;HPM_P2
2021/05/02 00:00:23;;;;;;;10.27;4.32;;;8.90;99.90;;;7.88;48.10;97140.34;4992750;28;20040;-65
2021/05/02 00:02:50;;;;;;;10.95;7.53;;;8.80;99.90;;;7.88;47.88;97153.25;4984552;28;20491;-64
2021/05/02 00:05:20;;;;;;;9.57;6.13;;;8.80;99.90;;;7.92;47.27;97144.50;5010737;28;20050;-65
2021/05/02 00:07:48;;;;;;;8.77;6.10;;;8.80;99.90;;;7.94;47.86;97140.09;4976649;28;20046;-64
2021/05/02 00:10:17;;;;;;;8.23;4.93;;;8.80;99.90;;;7.91;48.20;97143.66;4992379;28;20049;-65
2021/05/02 00:12:44;;;;;;;8.45;5.60;;;8.80;99.90;;;7.85;48.61;97138.72;4990891;28;20050;-65
2021/05/02 00:15:14;;;;;;;13.40;4.93;;;8.70;99.90;;;7.79;48.90;97138.13;5009213;28;20065;-64
2021/05/02 00:17:46;;;;;;;11.40;5.43;;;8.70;99.90;;;7.75;49.20;97132.22;4992600;28;20097;-65
2021/05/02 00:20:16;;;;;;;9.63;5.10;;;8.60;99.90;;;7.80;48.22;97137.19;5010126;28;20386;-65
2021/05/02 00:22:47;;;;;;;7.47;5.07;;;8.70;99.90;;;7.79;48.59;97143.28;5005957;28;20120;-65
2021/05/02 00:25:19;;;;;;;9.20;5.25;;;8.60;99.90;;;7.77;48.88;97134.75;5010054;28;20057;-65
2021/05/02 00:27:46;;;;;;;8.50;4.40;;;8.60;99.90;;;7.75;49.50;97140.81;5007930;28;20116;-65
2021/05/02 00:30:17;;;;;;;6.88;4.18;;;8.60;99.90;;;7.77;49.69;97148.50;4976832;28;20042;-64
2021/05/02 00:32:47;;;;;;;8.82;4.20;;;8.60;99.90;;;7.73;49.03;97142.63;5010229;28;20042;-65
2021/05/02 00:35:16;;;;;;;9.20;4.78;;;8.60;99.90;;;7.71;49.77;97149.59;5009791;28;20057;-64
2021/05/02 00:37:44;;;;;;;8.20;4.38;;;8.60;99.90;;;7.64;49.70;97152.44;4999843;28;20430;-65
2021/05/02 00:40:20;;;;;;;11.02;4.78;;;8.50;99.90;;;7.58;49.83;97143.19;4992035;28;20038;-64
2021/05/02 00:42:53;;;;;;;9.13;4.82;;;8.40;99.90;;;7.58;49.71;97147.53;4978595;28;20062;-65
2021/05/02 00:45:30;;;;;;;8.60;4.78;;;8.40;99.90;;;7.56;51.14;97144.16;4985825;28;20057;-65
2021/05/02 00:48:37;;;;;;;7.15;4.35;;;8.40;99.90;;;7.58;50.51;97143.19;4981815;28;20496;-64
2021/05/02 00:51:06;;;;;;;8.68;4.28;;;8.40;99.90;;;7.60;50.31;97149.16;4988708;28;20444;-64
2021/05/02 00:54:15;;;;;;;11.95;4.43;;;8.40;99.90;;;7.59;50.82;97155.19;4992027;28;20097;-65
2021/05/02 00:58:02;;;;;;;10.75;4.38;;;8.40;99.90;;;7.51;50.76;97149.50;5008672;28;20409;-65
2021/05/02 01:00:34;;;;;;;9.00;4.00;;;8.40;99.90;;;7.47;51.45;97153.91;4928217;29;20492;-65
2021/05/02 01:03:05;;;;;;;9.73;4.20;;;8.30;99.90;;;7.59;50.63;97162.94;4924589;29;20454;-64
2021/05/02 01:05:33;;;;;;;8.82;4.38;;;8.30;99.90;;;7.48;51.10;97159.91;4982972;28;20065;-65
2021/05/02 01:08:03;;;;;;;7.47;4.32;;;8.30;99.90;;;7.37;51.64;97156.88;4990106;28;20046;-64
2021/05/02 01:10:31;;;;;;;9.15;4.05;;;8.20;99.90;;;7.43;51.23;97159.25;5010126;28;20056;-64
2021/05/02 01:13:03;;;;;;;10.00;4.20;;;8.20;99.90;;;7.32;51.39;97164.78;5000613;28;20179;-64
2021/05/02 01:15:34;;;;;;;7.43;4.25;;;8.10;99.90;;;7.36;51.13;97162.97;4991527;28;20049;-64
2021/05/02 01:18:11;;;;;;;7.97;4.47;;;8.10;99.90;;;7.34;50.90;97160.41;5008504;28;20065;-64
2021/05/02 01:20:41;;;;;;;9.75;4.60;;;8.10;99.90;;;7.19;51.85;97163.56;5009952;28;20038;-65
2021/05/02 01:23:11;;;;;;;8.32;4.60;;;8.00;99.90;;;7.21;51.54;97165.19;5008249;28;20503;-65
2021/05/02 01:25:38;;;;;;;9.75;4.40;;;7.90;99.90;;;7.16;51.47;97171.41;5006611;28;20046;-65
2021/05/02 01:28:05;;;;;;;8.27;4.90;;;7.90;99.90;;;7.12;51.67;97174.09;5010096;28;20053;-65
2021/05/02 01:30:31;;;;;;;8.07;4.82;;;7.90;99.90;;;7.09;52.09;97176.81;4991894;28;20045;-65
2021/05/02 01:32:59;;;;;;;8.10;4.72;;;7.90;99.90;;;6.96;53.12;97174.72;5005566;28;20095;-65
2021/05/02 01:35:26;;;;;;;8.15;4.90;;;7.90;99.90;;;6.99;52.06;97178.00;5009582;28;20230;-65
2021/05/02 01:37:53;;;;;;;7.65;4.25;;;7.80;99.90;;;6.99;52.78;97180.59;5012886;28;20379;-64
2021/05/02 01:40:20;;;;;;;8.77;3.95;;;7.80;99.90;;;6.89;53.16;97180.06;5009456;28;20057;-65
2021/05/02 01:42:48;;;;;;;6.82;4.35;;;7.70;99.90;;;6.91;53.15;97178.28;5009090;28;20486;-64
2021/05/02 01:45:15;;;;;;;10.50;4.50;;;7.60;99.90;;;6.89;52.70;97187.81;5009299;28;20034;-65
2021/05/02 01:47:47;;;;;;;8.25;5.05;;;7.70;99.90;;;6.89;52.64;97185.22;4997225;28;20053;-65
2021/05/02 01:50:16;;;;;;;6.68;4.55;;;7.70;99.90;;;6.82;53.90;97190.63;4990035;28;20354;-64
2021/05/02 01:52:52;;;;;;;7.65;3.95;;;7.60;99.90;;;6.54;56.95;97193.28;4991243;28;20041;-65
2021/05/02 01:55:20;;;;;;;5.93;3.67;;;7.50;99.90;;;6.57;54.82;97199.22;5008177;28;20033;-65
2021/05/02 01:57:50;;;;;;;8.30;5.22;;;7.30;99.90;;;6.58;55.61;97193.13;4991697;28;20056;-65
2021/05/02 02:00:24;;;;;;;6.45;4.20;;;7.30;99.90;;;6.59;54.21;97194.84;5009525;28;20057;-64
2021/05/02 02:03:00;;;;;;;8.77;4.65;;;7.40;99.90;;;6.65;54.61;97191.22;5001883;28;20088;-65
2021/05/02 02:05:30;;;;;;;5.47;3.53;;;7.40;99.90;;;6.66;53.74;97192.88;4995283;28;20399;-64
2021/05/02 02:07:57;;;;;;;6.40;4.53;;;7.50;99.90;;;6.57;54.63;97199.22;4991745;28;20451;-65
2021/05/02 02:10:25;;;;;;;7.07;5.22;;;7.40;99.90;;;6.52;55.03;97203.66;4988967;28;20479;-65
2021/05/02 02:12:53;;;;;;;7.78;5.07;;;7.30;99.90;;;6.48;54.84;97199.50;5008860;28;20056;-65
2021/05/02 02:15:21;;;;;;;8.57;5.35;;;7.30;99.90;;;6.49;55.39;97204.59;5009093;28;20156;-64
2021/05/02 02:17:48;;;;;;;8.95;5.60;;;7.30;99.90;;;6.48;54.93;97208.06;4990996;28;20514;-64
2021/05/02 02:20:15;;;;;;;10.55;5.78;;;7.30;99.90;;;6.45;55.28;97208.19;4991383;28;20046;-65
2021/05/02 02:22:45;;;;;;;12.07;5.15;;;7.20;99.90;;;6.42;55.16;97215.16;4993925;28;20508;-65
2021/05/02 02:25:12;;;;;;;7.30;4.95;;;7.20;99.90;;;6.39;55.76;97210.94;4990259;28;20046;-65
2021/05/02 02:27:39;;;;;;;9.45;5.63;;;7.20;99.90;;;6.33;55.82;97215.47;5009256;28;20042;-64
2021/05/02 02:30:09;;;;;;;9.48;5.15;;;7.10;99.90;;;6.32;56.18;97219.78;4990909;28;20056;-64
2021/05/02 02:32:44;;;;;;;10.45;5.97;;;7.10;99.90;;;6.15;57.01;97211.72;5000088;28;20053;-64
2021/05/02 02:35:15;;;;;;;10.02;5.95;;;7.00;99.90;;;6.20;55.76;97221.00;5010694;28;20092;-65
2021/05/02 02:37:49;;;;;;;10.73;6.00;;;6.90;99.90;;;6.21;56.22;97219.25;5014584;28;20045;-64
2021/05/02 02:40:16;;;;;;;9.10;6.38;;;6.90;99.90;;;5.97;58.15;97218.25;5001723;28;20097;-65
2021/05/02 02:42:46;;;;;;;10.27;5.97;;;6.80;99.90;;;5.79;59.01;97220.47;5012386;28;20120;-65
2021/05/02 02:45:14;;;;;;;10.18;6.10;;;6.70;99.90;;;5.86;58.42;97232.28;5012809;28;20050;-65
2021/05/02 02:47:50;;;;;;;12.13;6.32;;;6.70;99.90;;;5.62;60.49;97235.56;4979446;28;20038;-65
2021/05/02 02:50:20;;;;;;;7.82;5.15;;;6.70;99.90;;;5.76;57.98;97225.69;4994147;28;20125;-65
2021/05/02 02:52:53;;;;;;;8.75;4.88;;;6.60;99.90;;;5.53;59.85;97235.81;5001116;28;20045;-65
2021/05/02 02:55:23;;;;;;;7.43;5.25;;;6.60;99.90;;;5.54;60.22;97230.63;5013001;28;20072;-65
2021/05/02 02:57:52;;;;;;;9.55;6.00;;;6.50;99.90;;;5.56;59.70;97243.44;5012550;28;20053;-65
2021/05/02 03:00:26;;;;;;;13.18;6.43;;;6.40;99.90;;;5.58;60.29;97244.25;5012280;28;20405;-65
2021/05/02 03:03:19;;;;;;;10.35;6.65;;;6.40;99.90;;;5.68;59.08;97242.25;5010111;28;20054;-64
2021/05/02 03:05:46;;;;;;;10.07;7.30;;;6.40;99.90;;;5.69;59.94;97239.66;4999519;28;20061;-65
2021/05/02 03:08:13;;;;;;;12.35;5.65;;;6.40;99.90;;;5.59;59.97;97241.63;4991712;28;20056;-64
2021/05/02 03:10:41;;;;;;;9.73;6.80;;;6.40;99.90;;;5.73;59.18;97241.25;5006154;28;20069;-65
2021/05/02 03:13:12;;;;;;;9.68;6.45;;;6.40;99.90;;;5.78;59.82;97247.09;4976761;28;21489;-65
2021/05/02 03:15:39;;;;;;;7.18;5.25;;;6.50;99.90;;;5.78;59.55;97248.84;5011298;28;20037;-65
2021/05/02 03:18:24;;;;;;;9.25;5.38;;;6.60;99.90;;;5.64;59.72;97256.97;4992642;28;20053;-64
2021/05/02 03:21:02;;;;;;;9.35;6.68;;;6.50;99.90;;;5.45;62.19;97254.91;4993086;28;20054;-65
2021/05/02 03:23:41;;;;;;;14.35;7.95;;;6.40;99.90;;;5.62;59.98;97253.59;5011581;28;20052;-64
2021/05/02 03:26:10;;;;;;;9.45;5.53;;;6.40;99.90;;;5.40;61.85;97255.91;4993938;28;20042;-64
2021/05/02 03:28:46;;;;;;;11.05;5.88;;;6.40;99.90;;;5.33;62.56;97252.63;5010810;28;20026;-64
2021/05/02 03:31:15;;;;;;;12.82;7.72;;;6.30;99.90;;;5.44;61.09;97258.34;4992649;28;20358;-65
2021/05/02 03:33:47;;;;;;;13.57;7.28;;;6.30;99.90;;;5.47;61.21;97259.97;4993704;28;20073;-65
2021/05/02 03:36:28;;;;;;;12.13;7.22;;;6.40;99.90;;;5.50;60.68;97267.66;4996807;28;20041;-64
2021/05/02 03:38:56;;;;;;;12.98;9.07;;;6.40;99.90;;;5.47;61.75;97266.88;5008982;28;20045;-65
2021/05/02 03:41:23;;;;;;;12.90;7.95;;;6.30;99.90;;;5.37;62.05;97271.44;4992431;28;20530;-64
2021/05/02 03:43:50;;;;;;;15.45;8.73;;;6.30;99.90;;;5.43;61.73;97266.97;4994198;28;20046;-64
2021/05/02 03:46:24;;;;;;;14.55;8.13;;;6.30;99.90;;;5.46;61.97;97268.59;4992840;28;20063;-64
2021/05/02 03:48:57;;;;;;;16.02;9.15;;;6.30;99.90;;;5.59;60.84;97280.25;5008912;28;20462;-65
2021/05/02 03:51:26;;;;;;;13.65;8.55;;;6.40;99.90;;;5.54;60.98;97278.69;4988441;28;20053;-65
2021/05/02 03:53:54;;;;;;;15.05;9.10;;;6.40;99.90;;;5.70;60.53;97277.38;5011131;28;20219;-64
2021/05/02 03:56:33;;;;;;;16.65;10.10;;;6.40;99.90;;;5.65;61.21;97272.34;4993923;28;20042;-65
2021/05/02 03:59:17;;;;;;;13.27;8.88;;;6.40;99.90;;;5.59;61.68;97279.44;5011417;28;20495;-64
2021/05/02 04:01:59;;;;;;;15.20;9.38;;;6.50;99.90;;;5.51;62.10;97286.50;5010528;28;20045;-64
2021/05/02 04:04:30;;;;;;;19.25;8.93;;;6.40;99.90;;;5.63;61.50;97293.88;5008192;28;20188;-64
2021/05/02 04:07:06;;;;;;;14.93;8.70;;;6.50;99.90;;;5.52;62.90;97290.75;4992491;28;20037;-64
2021/05/02 04:09:34;;;;;;;13.38;9.10;;;6.40;99.90;;;5.50;62.43;97295.97;4990175;28;20521;-64
2021/05/02 04:12:02;;;;;;;14.85;9.82;;;6.40;99.90;;;5.57;60.97;97294.91;4991678;28;20042;-64
2021/05/02 04:14:29;;;;;;;18.52;9.82;;;6.40;99.90;;;5.41;62.64;97306.50;4992445;28;20046;-64
2021/05/02 04:17:03;;;;;;;15.05;10.13;;;6.30;99.90;;;5.40;62.16;97312.50;4991324;28;20042;-64
2021/05/02 04:19:33;;;;;;;22.42;11.95;;;6.30;99.90;;;5.42;62.59;97313.31;4991421;28;20053;-64
2021/05/02 04:22:00;;;;;;;15.63;11.52;;;6.20;99.90;;;5.53;61.54;97316.47;4992862;28;20068;-64
2021/05/02 04:24:27;;;;;;;16.80;11.02;;;6.30;99.90;;;5.52;61.74;97316.50;5009927;28;20149;-64
2021/05/02 04:26:56;;;;;;;16.27;10.90;;;6.30;99.90;;;5.53;61.37;97324.19;4990556;28;20120;-64
2021/05/02 04:29:33;;;;;;;18.50;11.10;;;6.30;99.90;;;5.30;63.89;97326.53;5007932;28;20042;-65
2021/05/02 04:32:01;;;;;;;15.18;10.98;;;6.20;99.90;;;5.32;62.67;97329.91;4987431;28;20050;-64
2021/05/02 04:34:28;;;;;;;15.25;10.50;;;6.20;99.90;;;5.29;63.10;97333.41;5004682;28;20045;-65
2021/05/02 04:36:57;;;;;;;13.13;10.65;;;6.10;99.90;;;5.26;63.85;97336.03;5009751;28;20100;-65
2021/05/02 04:39:26;;;;;;;16.13;11.05;;;6.10;99.90;;;5.22;63.71;97340.44;4995149;28;20066;-64
2021/05/02 04:41:53;;;;;;;15.65;9.88;;;6.20;99.90;;;5.36;62.75;97344.34;4992743;28;20049;-65
2021/05/02 04:44:21;;;;;;;14.00;9.88;;;6.20;99.90;;;5.38;62.34;97343.47;4992679;28;20550;-65
2021/05/02 04:46:48;;;;;;;12.48;8.55;;;6.20;99.90;;;5.32;63.08;97348.75;4991288;28;20042;-64
2021/05/02 04:49:15;;;;;;;14.27;9.65;;;6.10;99.90;;;5.27;63.24;97349.75;5006466;28;20121;-64
2021/05/02 04:51:42;;;;;;;16.52;9.40;;;6.10;99.90;;;5.30;62.73;97352.25;5004854;28;20041;-64
2021/05/02 04:54:10;;;;;;;14.15;9.35;;;6.10;99.90;;;5.36;62.33;97354.66;4971258;28;20407;-64
2021/05/02 04:56:38;;;;;;;16.98;9.23;;;6.20;99.90;;;5.47;62.14;97360.38;5009485;28;20525;-64
2021/05/02 04:59:07;;;;;;;17.73;10.63;;;6.20;99.90;;;5.42;62.55;97354.50;4992330;28;20446;-64
2021/05/02 05:01:38;;;;;;;17.27;11.15;;;6.20;99.90;;;5.50;61.66;97362.91;5009548;28;20152;-65
2021/05/02 05:04:06;;;;;;;18.85;10.18;;;6.30;99.90;;;5.49;62.14;97365.50;5010369;28;20053;-65
2021/05/02 05:06:35;;;;;;;17.90;11.07;;;6.30;99.90;;;5.50;62.13;97368.03;4986873;28;20046;-64
2021/05/02 05:09:04;;;;;;;16.63;10.30;;;6.30;99.90;;;5.54;62.03;97371.38;5007617;28;20046;-64
2021/05/02 05:11:30;;;;;;;18.90;10.45;;;6.30;99.90;;;5.60;61.69;97371.22;4992712;28;20061;-65
2021/05/02 05:13:57;;;;;;;16.70;11.07;;;6.40;99.90;;;5.58;61.98;97373.81;5009580;28;20049;-65
2021/05/02 05:16:23;;;;;;;13.82;9.40;;;6.40;99.90;;;5.64;61.56;97381.41;4991360;28;20117;-65
2021/05/02 05:18:50;;;;;;;17.05;11.55;;;6.50;99.90;;;5.66;61.95;97382.19;5010032;28;20042;-64
2021/05/02 05:21:17;;;;;;;20.42;10.93;;;6.50;99.90;;;5.73;61.53;97379.47;5004294;28;20116;-65
2021/05/02 05:23:43;;;;;;;18.40;11.32;;;6.50;99.90;;;5.77;61.52;97391.34;5009351;28;20076;-64
2021/05/02 05:26:10;;;;;;;17.17;10.93;;;6.60;99.90;;;5.86;61.60;97391.13;5009552;28;20050;-64
2021/05/02 05:28:36;;;;;;;19.92;11.18;;;6.70;99.90;;;5.94;61.53;97396.09;5005997;28;20042;-64
2021/05/02 05:31:03;;;;;;;13.57;9.75;;;6.80;99.90;;;6.03;61.93;97406.16;5008856;28;20049;-64
2021/05/02 05:33:33;;;;;;;13.63;10.43;;;7.00;99.90;;;6.02;61.55;97397.59;5006270;28;20130;-65
2021/05/02 05:35:59;;;;;;;15.30;10.48;;;7.10;99.90;;;6.06;60.95;97406.06;4975724;28;20050;-64
2021/05/02 05:38:26;;;;;;;15.50;11.30;;;7.10;99.90;;;6.12;61.13;97412.81;5009767;28;20100;-64
2021/05/02 05:40:53;;;;;;;17.30;10.57;;;7.20;99.90;;;6.19;61.48;97402.28;5010143;28;20038;-64
2021/05/02 05:43:20;;;;;;;19.48;11.80;;;7.20;99.90;;;6.25;61.10;97407.28;4988576;28;20046;-64
2021/05/02 05:45:48;;;;;;;17.83;12.30;;;7.20;99.90;;;6.22;60.85;97409.06;5001934;28;20463;-64
2021/05/02 05:48:16;;;;;;;19.05;12.52;;;7.30;99.90;;;6.37;60.94;97411.22;4999551;28;20041;-65
2021/05/02 05:50:47;;;;;;;15.25;11.52;;;7.40;99.90;;;6.53;60.21;97413.38;5009187;28;20067;-65
2021/05/02 05:53:15;;;;;;;16.45;11.88;;;7.50;99.90;;;6.53;60.59;97415.97;5008968;28;20048;-65
2021/05/02 05:55:42;;;;;;;16.67;12.40;;;7.60;99.90;;;6.64;59.86;97425.06;4991961;28;20060;-65
2021/05/02 05:58:09;;;;;;;17.42;11.82;;;7.80;99.90;;;6.73;59.66;97417.94;5005934;28;20039;-65
2021/05/02 06:00:36;;;;;;;15.40;11.88;;;7.80;99.90;;;6.49;60.27;97426.34;5007245;28;20482;-65
2021/05/02 06:03:03;;;;;;;20.60;13.52;;;7.70;99.90;;;6.44;60.25;97427.38;5014121;28;20069;-64
2021/05/02 06:05:30;;;;;;;17.42;12.18;;;7.60;99.90;;;6.53;60.24;97418.53;5018360;28;20455;-65
2021/05/02 06:07:56;;;;;;;19.38;13.10;;;7.60;99.90;;;6.59;60.65;97429.53;5020377;28;20116;-65
2021/05/02 06:10:23;;;;;;;15.98;11.75;;;7.60;99.90;;;6.54;60.51;97431.38;5007843;28;20126;-65
2021/05/02 06:12:50;;;;;;;18.30;13.55;;;7.70;99.90;;;6.51;60.62;97428.03;5007292;28;20053;-65
2021/05/02 06:15:17;;;;;;;15.60;11.70;;;7.50;99.90;;;6.78;60.01;97436.72;5008165;28;20042;-65
2021/05/02 06:17:44;;;;;;;19.50;11.68;;;7.80;99.90;;;6.87;59.40;97433.84;5000983;28;20053;-65
2021/05/02 06:20:11;;;;;;;15.90;12.15;;;8.00;99.90;;;6.91;59.01;97433.72;5008914;28;20046;-64
2021/05/02 06:22:38;;;;;;;16.05;11.55;;;8.10;99.90;;;7.04;58.81;97430.75;4989531;28;20104;-64
2021/05/02 06:25:07;;;;;;;16.35;10.85;;;8.20;99.90;;;6.88;59.25;97438.94;4998370;28;20068;-65
2021/05/02 06:27:34;;;;;;;19.75;12.45;;;8.00;99.90;;;6.82;59.71;97441.75;4991086;28;20045;-65
2021/05/02 06:30:04;;;;;;;20.30;13.48;;;8.00;99.90;;;6.96;59.53;97451.63;4991373;28;20065;-64
2021/05/02 06:32:31;;;;;;;18.88;13.73;;;7.90;99.90;;;6.95;59.77;97439.63;5004493;28;20112;-65
2021/05/02 06:34:58;;;;;;;16.55;13.43;;;7.90;99.90;;;7.13;59.63;97439.03;5002068;28;20061;-64
2021/05/02 06:37:25;;;;;;;17.00;13.88;;;8.00;99.90;;;7.20;59.55;97447.44;5008637;28;20290;-64
2021/05/02 06:39:52;;;;;;;23.67;14.23;;;8.20;99.90;;;7.20;59.71;97446.59;5007172;28;20033;-65
2021/05/02 06:42:18;;;;;;;17.63;12.85;;;8.20;99.90;;;7.37;59.55;97446.94;4990855;28;20053;-65
2021/05/02 06:44:45;;;;;;;24.92;14.23;;;8.40;99.90;;;7.45;59.03;97450.09;4999383;28;20053;-65
2021/05/02 06:47:11;;;;;;;19.17;14.95;;;8.40;99.90;;;7.23;58.56;97459.41;5007553;28;20121;-65
2021/05/02 06:49:39;;;;;;;21.42;15.05;;;8.40;99.90;;;7.27;58.88;97455.84;5000004;28;20524;-65
2021/05/02 06:52:06;;;;;;;21.35;15.70;;;8.40;99.90;;;7.35;58.78;97465.97;5006766;28;20057;-65
2021/05/02 06:54:32;;;;;;;21.05;15.57;;;8.30;99.90;;;7.67;58.36;97470.09;4990087;28;20049;-65
2021/05/02 06:56:59;;;;;;;18.83;14.35;;;8.50;99.90;;;7.58;57.80;97455.72;5007130;28;20038;-65
2021/05/02 06:59:25;;;;;;;20.05;15.30;;;8.60;99.90;;;7.22;58.73;97460.31;4988294;28;20038;-65
2021/05/02 07:01:52;;;;;;;19.70;15.30;;;8.50;99.90;;;7.64;58.53;97471.03;4983668;28;20054;-65
2021/05/02 07:04:19;;;;;;;22.30;15.25;;;8.70;99.90;;;7.65;57.90;97462.38;4988631;28;20046;-64
2021/05/02 07:06:45;;;;;;;17.13;14.75;;;8.80;99.90;;;7.94;57.66;97463.16;5007546;28;20041;-65
2021/05/02 07:09:12;;;;;;;19.20;15.40;;;8.90;99.90;;;7.90;57.31;97453.81;4973898;28;20042;-65
2021/05/02 07:11:38;;;;;;;24.92;15.75;;;9.00;99.90;;;7.71;59.20;97457.00;5006850;28;20038;-65
2021/05/02 07:14:05;;;;;;;19.85;15.10;;;8.80;99.90;;;7.68;58.84;97459.69;5002551;28;20483;-65
2021/05/02 07:16:31;;;;;;;20.27;15.48;;;8.80;99.90;;;7.83;58.17;97462.69;5005087;28;20057;-65
2021/05/02 07:18:58;;;;;;;24.15;16.02;;;8.90;99.90;;;7.75;58.96;97460.31;5006316;28;20042;-65
2021/05/02 07:21:24;;;;;;;19.95;15.60;;;8.80;99.90;;;7.91;57.94;97469.28;5007730;28;20045;-65
2021/05/02 07:23:52;;;;;;;18.95;14.82;;;9.00;99.90;;;8.22;57.42;97470.81;5011079;28;20061;-65
2021/05/02 07:26:22;;;;;;;22.52;15.63;;;9.20;99.90;;;8.50;56.39;97473.28;4976753;28;20544;-65
2021/05/02 07:28:51;;;;;;;19.95;14.20;;;9.50;99.90;;;8.75;55.11;97468.06;5007880;28;20503;-65
2021/05/02 07:31:19;;;;;;;18.08;14.50;;;9.70;99.90;;;8.77;55.11;97463.66;5004678;28;20049;-65
2021/05/02 07:33:46;;;;;;;17.55;14.30;;;9.80;99.90;;;8.64;56.25;97474.53;4992761;28;20076;-65
2021/05/02 07:36:14;;;;;;;14.27;11.40;;;9.70;99.90;;;8.32;52.68;97477.31;5008986;28;20037;-65
2021/05/02 07:38:42;;;;;;;15.48;12.07;;;9.80;99.90;;;8.18;54.47;97471.78;5007204;28;20046;-64
2021/05/02 07:41:11;;;;;;;16.80;12.85;;;9.80;99.90;;;8.36;54.81;97473.75;5000864;28;20408;-65
2021/05/02 07:43:40;;;;;;;15.75;12.02;;;9.80;99.90;;;8.66;52.55;97483.91;4992477;28;20042;-65
2021/05/02 07:46:07;;;;;;;13.82;10.75;;;9.70;99.90;;;8.98;51.97;97472.38;4989945;28;20046;-65
2021/05/02 07:48:35;;;;;;;15.95;11.05;;;9.80;99.90;;;8.67;50.57;97479.59;4974620;28;20065;-64
2021/05/02 07:51:03;;;;;;;16.38;11.55;;;9.80;99.90;;;8.86;51.41;97484.94;4988065;28;20042;-65
2021/05/02 07:53:30;;;;;;;17.02;11.90;;;9.90;99.90;;;9.09;50.63;97478.91;4973339;28;20046;-65
2021/05/02 07:55:56;;;;;;;14.23;11.13;;;10.20;99.90;;;9.20;50.14;97484.50;5006554;28;20411;-65
2021/05/02 07:58:23;;;;;;;17.17;12.77;;;10.40;99.90;;;8.57;51.05;97498.03;5005892;28;20050;-65
2021/05/02 08:00:50;;;;;;;17.10;12.43;;;10.50;99.90;;;8.33;53.23;97489.38;4987488;28;20046;-65
2021/05/02 08:03:16;;;;;;;15.63;12.10;;;10.40;99.90;;;8.83;51.98;97492.84;5005910;28;20415;-65
2021/05/02 08:05:43;;;;;;;15.93;11.90;;;10.40;99.90;;;9.10;51.45;97501.28;5007843;28;20052;-65
2021/05/02 08:08:09;;;;;;;16.90;13.25;;;10.60;99.90;;;9.23;50.84;97494.75;5008266;28;20030;-65
2021/05/02 08:10:36;;;;;;;19.08;13.05;;;10.90;99.90;;;9.07;51.71;97494.47;5001048;28;20038;-65
2021/05/02 08:13:02;;;;;;;19.67;12.40;;;11.00;99.90;;;10.12;49.44;97493.75;5010814;28;20126;-65
2021/05/02 08:15:29;;;;;;;17.65;12.82;;;11.50;99.90;;;10.01;50.43;97496.81;5008286;28;20082;-65
2021/05/02 08:17:58;;;;;;;13.50;9.85;;;11.70;99.90;;;10.95;48.81;97500.56;5007851;28;20053;-65
2021/05/02 08:20:25;;;;;;;17.95;12.52;;;12.20;99.90;;;10.83;47.87;97495.91;5008512;28;20056;-65
2021/05/02 08:22:52;;;;;;;14.13;10.90;;;12.60;99.90;;;11.65;45.62;97491.19;5007210;28;20057;-66
2021/05/02 08:25:20;;;;;;;13.80;11.05;;;12.90;99.90;;;12.04;44.22;97485.03;4976785;28;20822;-66
2021/05/02 08:27:49;;;;;;;14.75;11.07;;;13.10;99.90;;;11.26;46.08;97504.34;4989918;28;20089;-66
2021/05/02 08:30:16;;;;;;;15.95;11.10;;;13.50;99.90;;;12.06;45.15;97488.34;4989475;28;20065;-66
2021/05/02 08:32:43;;;;;;;14.60;10.70;;;13.70;99.90;;;12.70;42.59;97496.41;4968424;28;20061;-66
2021/05/02 08:35:10;;;;;;;13.65;11.80;;;14.20;99.40;;;11.87;43.31;97498.84;5004567;28;20030;-66
2021/05/02 08:37:38;;;;;;;16.33;12.18;;;14.20;97.90;;;11.32;43.53;97511.03;5004380;28;20057;-66
2021/05/02 08:40:06;;;;;;;12.82;11.02;;;13.60;98.40;;;10.90;46.02;97505.09;5009644;28;20041;-66
2021/05/02 08:42:33;;;;;;;14.68;12.00;;;13.00;99.70;;;10.13;47.47;97507.59;4991787;28;20096;-65
2021/05/02 08:45:00;;;;;;;13.95;11.75;;;12.10;99.90;;;10.70;47.63;97507.75;4998954;28;20077;-65
2021/05/02 08:47:34;;;;;;;15.45;12.23;;;11.80;99.90;;;10.54;47.13;97513.63;5000868;28;20039;-66
2021/05/02 08:50:13;;;;;;;13.25;11.85;;;11.80;99.90;;;9.84;48.73;97514.78;4997704;28;20046;-66
2021/05/02 08:52:40;;;;;;;15.30;11.70;;;11.90;99.90;;;9.64;48.61;97506.06;5002424;28;20057;-65
2021/05/02 08:55:08;;;;;;;14.52;11.68;;;11.60;99.90;;;9.87;47.79;97519.00;4980851;28;20041;-65
2021/05/02 08:57:36;;;;;;;13.30;10.98;;;11.70;99.90;;;11.37;45.42;97509.03;5009389;28;20037;-66
2021/05/02 09:00:08;;;;;;;14.40;11.73;;;12.40;99.90;;;10.87;45.39;97505.25;4988908;28;20038;-65
2021/05/02 09:02:35;;;;;;;13.00;10.32;;;12.60;99.90;;;10.81;46.23;97519.34;4983322;28;20058;-65
2021/05/02 09:05:05;;;;;;;12.38;9.48;;;12.30;99.90;;;10.23;45.91;97516.66;5004615;28;20049;-65
2021/05/02 09:07:48;;;;;;;12.38;9.45;;;12.10;99.90;;;10.31;45.31;97514.63;4984508;28;20049;-66
2021/05/02 09:10:18;;;;;;;10.27;7.78;;;12.10;99.80;;;10.44;45.21;97514.91;5008054;28;20053;-66
2021/05/02 09:13:13;;;;;;;12.10;9.27;;;12.00;99.90;;;10.40;45.34;97518.53;4989237;28;20140;-66
2021/05/02 09:15:40;;;;;;;11.13;8.73;;;12.00;99.90;;;10.83;44.92;97516.69;5010110;28;20136;-65
2021/05/02 09:20:42;;;;;;;9.02;5.90;;;13.10;99.30;;;13.48;39.04;97502.66;5017279;28;20414;-66
2021/05/02 09:23:10;;;;;;;10.88;7.32;;;14.30;96.00;;;12.32;38.46;97513.09;4983835;28;20050;-65
2021/05/02 09:25:54;;;;;;;10.15;7.07;;;14.90;93.30;;;11.16;39.55;97514.31;5012113;28;20049;-66
2021/05/02 09:28:50;;;;;;;7.72;5.88;;;14.90;90.50;;;13.41;37.02;97508.28;5000337;28;20041;-66
2021/05/02 09:31:20;;;;;;;5.65;4.03;;;14.90;91.60;;;12.68;36.49;97508.66;4997297;28;20076;-66
2021/05/02 09:33:48;;;;;;;5.68;4.28;;;15.00;86.60;;;11.85;36.46;97508.44;5009708;28;20060;-66
2021/05/02 09:36:17;;;;;;;7.70;4.25;;;14.50;82.50;;;12.33;36.51;97511.31;4988952;28;20045;-66
2021/05/02 09:38:44;;;;;;;7.97;4.28;;;14.00;85.60;;;11.47;38.01;97524.13;5015290;28;20042;-66
2021/05/02 09:41:14;;;;;;;5.30;3.72;;;13.80;85.80;;;11.60;37.81;97513.16;5008962;28;20056;-66
2021/05/02 09:43:47;;;;;;;6.82;4.10;;;13.30;86.20;;;11.40;36.84;97517.53;5000026;28;20343;-66
2021/05/02 09:49:08;;;;;;;5.43;3.40;;;13.00;85.60;;;11.64;37.11;97520.72;5015706;28;20041;-66
2021/05/02 09:51:37;;;;;;;5.43;3.47;;;13.20;86.80;;;11.42;37.88;97520.06;5013884;28;20050;-66
2021/05/02 09:54:21;;;;;;;6.38;2.97;;;13.20;86.60;;;11.68;36.49;97511.03;5016042;28;20052;-65
2021/05/02 09:56:49;;;;;;;4.45;2.75;;;13.40;84.20;;;11.90;35.68;97509.09;5018550;28;20041;-65
2021/05/02 09:59:23;;;;;;;4.60;3.10;;;13.80;82.00;;;13.17;34.88;97519.09;5021337;28;20045;-66
2021/05/02 10:02:10;;;;;;;4.38;2.67;;;14.40;83.60;;;11.96;34.24;97528.75;5012641;28;20145;-65
2021/05/02 10:04:51;;;;;;;5.18;2.92;;;14.10;79.70;;;11.44;35.09;97531.22;5011564;28;20069;-64
2021/05/02 10:07:30;;;;;;;4.28;2.53;;;13.50;79.40;;;12.04;35.38;97525.78;4992566;28;20379;-65
2021/05/02 10:09:57;;;;;;;4.00;2.08;;;13.40;80.90;;;11.69;34.93;97529.16;4992337;28;20050;-65
2021/05/02 10:12:24;;;;;;;3.13;1.67;;;13.50;78.70;;;12.16;35.63;97522.59;4999000;28;20068;-65
2021/05/02 10:14:51;;;;;;;2.67;1.60;;;13.70;80.70;;;11.69;34.65;97526.53;5012838;28;20455;-65
2021/05/02 10:17:18;;;;;;;5.78;2.63;;;13.60;77.50;;;11.71;34.37;97531.69;4989719;28;20504;-65
2021/05/02 10:19:45;;;;;;;3.58;2.30;;;13.60;76.30;;;12.25;34.16;97523.91;5012603;28;20126;-65
2021/05/02 10:22:12;;;;;;;3.67;2.25;;;13.80;77.00;;;12.66;33.38;97523.53;5013318;28;20051;-65
2021/05/02 10:24:40;;;;;;;4.03;2.30;;;13.90;76.10;;;11.25;35.26;97534.69;4998703;28;20064;-65
2021/05/02 10:27:10;;;;;;;3.38;2.08;;;14.20;75.60;;;12.04;34.59;97526.66;5011091;28;20041;-65
2021/05/02 10:29:41;;;;;;;3.53;1.90;;;14.30;75.00;;;12.61;36.64;97525.53;4995073;28;20132;-65
2021/05/02 10:32:11;;;;;;;3.60;2.22;;;15.20;78.00;;;14.96;32.31;97509.72;4996758;28;20048;-65
2021/05/02 10:34:43;;;;;;;3.72;1.90;;;16.30;75.80;;;14.30;31.48;97524.97;5019352;28;20060;-65
2021/05/02 10:37:26;;;;;;;4.13;1.52;;;17.20;68.60;;;12.83;32.03;97535.69;4990135;28;20422;-65
2021/05/02 10:40:01;;;;;;;3.08;1.90;;;16.50;65.10;;;12.52;33.40;97529.44;5006438;28;20093;-65